sensor_id;sensor_type;location;lat;lon;timestamp;P1;durP1;ratioP1;P2;durP2;ratioP2
14143;SDS011;7152;48.348;10.980;2022-08-30T00:00:05;13.33;;;12.13;;
14143;SDS011;7152;48.348;10.980;2022-08-30T00:02:54;13.00;;;11.73;;
14143;SDS011;7152;48.348;10.980;2022-08-30T00:05:20;14.37;;;12.37;;
14143;SDS011;7152;48.348;10.980;2022-08-30T00:07:47;12.57;;;11.47;;
14143;SDS011;7152;48.348;10.980;2022-08-30T00:10:13;14.53;;;13.07;;
14143;SDS011;7152;48.348;10.980;2022-08-30T00:12:39;13.73;;;12.50;;
14143;SDS011;7152;48.348;10.980;2022-08-30T00:15:05;14.13;;;12.73;;
14143;SDS011;7152;48.348;10.980;2022-08-30T00:17:33;14.50;;;12.90;;
14143;SDS011;7152;48.348;10.980;2022-08-30T00:19:58;15.70;;;14.07;;
14143;SDS011;7152;48.348;10.980;2022-08-30T00:22:24;15.57;;;14.07;;
14143;SDS011;7152;48.348;10.980;2022-08-30T00:24:50;14.87;;;13.43;;
14143;SDS011;7152;48.348;10.980;2022-08-30T00:27:15;15.10;;;13.57;;
14143;SDS011;7152;48.348;10.980;2022-08-30T00:29:41;14.67;;;13.17;;
14143;SDS011;7152;48.348;10.980;2022-08-30T00:32:07;14.57;;;13.10;;
14143;SDS011;7152;48.348;10.980;2022-08-30T00:34:32;14.80;;;13.50;;
14143;SDS011;7152;48.348;10.980;2022-08-30T00:36:58;15.50;;;13.83;;
14143;SDS011;7152;48.348;10.980;2022-08-30T00:39:24;14.70;;;13.30;;
14143;SDS011;7152;48.348;10.980;2022-08-30T00:41:50;13.93;;;12.53;;
14143;SDS011;7152;48.348;10.980;2022-08-30T00:44:16;14.13;;;12.67;;
14143;SDS011;7152;48.348;10.980;2022-08-30T00:46:42;15.20;;;13.80;;
14143;SDS011;7152;48.348;10.980;2022-08-30T00:49:07;14.50;;;13.10;;
14143;SDS011;7152;48.348;10.980;2022-08-30T00:51:36;14.80;;;13.40;;
14143;SDS011;7152;48.348;10.980;2022-08-30T00:54:03;14.67;;;13.23;;
14143;SDS011;7152;48.348;10.980;2022-08-30T00:56:29;14.77;;;13.47;;
14143;SDS011;7152;48.348;10.980;2022-08-30T00:58:57;15.13;;;13.63;;
14143;SDS011;7152;48.348;10.980;2022-08-30T01:01:25;14.70;;;13.30;;
14143;SDS011;7152;48.348;10.980;2022-08-30T01:03:52;14.80;;;13.40;;
14143;SDS011;7152;48.348;10.980;2022-08-30T01:06:18;14.97;;;13.60;;
14143;SDS011;7152;48.348;10.980;2022-08-30T01:08:44;14.17;;;12.87;;
14143;SDS011;7152;48.348;10.980;2022-08-30T01:11:12;14.70;;;13.30;;
14143;SDS011;7152;48.348;10.980;2022-08-30T01:13:42;14.93;;;13.27;;
14143;SDS011;7152;48.348;10.980;2022-08-30T01:16:11;15.77;;;14.17;;
14143;SDS011;7152;48.348;10.980;2022-08-30T01:18:37;15.40;;;13.60;;
14143;SDS011;7152;48.348;10.980;2022-08-30T01:23:32;14.20;;;12.90;;
14143;SDS011;7152;48.348;10.980;2022-08-30T01:26:00;13.80;;;12.50;;
14143;SDS011;7152;48.348;10.980;2022-08-30T01:28:27;12.80;;;11.70;;
14143;SDS011;7152;48.348;10.980;2022-08-30T01:30:54;14.63;;;13.23;;
14143;SDS011;7152;48.348;10.980;2022-08-30T01:33:20;13.03;;;11.73;;
14143;SDS011;7152;48.348;10.980;2022-08-30T01:35:48;14.57;;;13.17;;
14143;SDS011;7152;48.348;10.980;2022-08-30T01:38:35;13.53;;;12.23;;
14143;SDS011;7152;48.348;10.980;2022-08-30T01:41:08;14.13;;;12.70;;
14143;SDS011;7152;48.348;10.980;2022-08-30T01:43:36;14.20;;;12.57;;
14143;SDS011;7152;48.348;10.980;2022-08-30T01:46:02;14.27;;;12.87;;
14143;SDS011;7152;48.348;10.980;2022-08-30T01:48:28;14.13;;;12.47;;
14143;SDS011;7152;48.348;10.980;2022-08-30T01:50:54;14.63;;;13.13;;
14143;SDS011;7152;48.348;10.980;2022-08-30T01:53:20;14.57;;;12.43;;
14143;SDS011;7152;48.348;10.980;2022-08-30T01:55:46;13.23;;;11.90;;
14143;SDS011;7152;48.348;10.980;2022-08-30T01:58:12;13.00;;;11.63;;
14143;SDS011;7152;48.348;10.980;2022-08-30T02:00:38;13.50;;;12.17;;
14143;SDS011;7152;48.348;10.980;2022-08-30T02:03:04;14.47;;;13.07;;
14143;SDS011;7152;48.348;10.980;2022-08-30T02:05:34;15.40;;;13.90;;
14143;SDS011;7152;48.348;10.980;2022-08-30T02:07:59;17.00;;;14.37;;
14143;SDS011;7152;48.348;10.980;2022-08-30T02:10:25;16.70;;;14.67;;
14143;SDS011;7152;48.348;10.980;2022-08-30T02:12:51;15.53;;;14.13;;
14143;SDS011;7152;48.348;10.980;2022-08-30T02:15:16;15.93;;;14.43;;
14143;SDS011;7152;48.348;10.980;2022-08-30T02:17:42;15.83;;;14.00;;
14143;SDS011;7152;48.348;10.980;2022-08-30T02:20:08;18.80;;;16.27;;
14143;SDS011;7152;48.348;10.980;2022-08-30T02:22:34;18.33;;;16.43;;
14143;SDS011;7152;48.348;10.980;2022-08-30T02:25:00;17.93;;;16.13;;
14143;SDS011;7152;48.348;10.980;2022-08-30T02:27:27;17.17;;;15.37;;
14143;SDS011;7152;48.348;10.980;2022-08-30T02:29:52;17.00;;;15.30;;
14143;SDS011;7152;48.348;10.980;2022-08-30T02:32:18;15.00;;;13.60;;
14143;SDS011;7152;48.348;10.980;2022-08-30T02:34:44;14.83;;;13.30;;
14143;SDS011;7152;48.348;10.980;2022-08-30T02:37:11;16.07;;;14.50;;
14143;SDS011;7152;48.348;10.980;2022-08-30T02:39:37;15.10;;;13.30;;
14143;SDS011;7152;48.348;10.980;2022-08-30T02:42:03;14.83;;;13.43;;
14143;SDS011;7152;48.348;10.980;2022-08-30T02:44:29;15.03;;;13.63;;
14143;SDS011;7152;48.348;10.980;2022-08-30T02:46:55;14.33;;;12.93;;
14143;SDS011;7152;48.348;10.980;2022-08-30T02:49:20;13.77;;;12.37;;
14143;SDS011;7152;48.348;10.980;2022-08-30T02:51:46;13.83;;;12.60;;
14143;SDS011;7152;48.348;10.980;2022-08-30T02:54:12;14.90;;;13.50;;
14143;SDS011;7152;48.348;10.980;2022-08-30T02:56:43;13.60;;;12.30;;
14143;SDS011;7152;48.348;10.980;2022-08-30T02:59:13;13.83;;;12.53;;
14143;SDS011;7152;48.348;10.980;2022-08-30T03:01:39;14.03;;;12.63;;
14143;SDS011;7152;48.348;10.980;2022-08-30T03:04:05;13.07;;;11.77;;
14143;SDS011;7152;48.348;10.980;2022-08-30T03:06:31;10.90;;;9.90;;
14143;SDS011;7152;48.348;10.980;2022-08-30T03:08:57;10.33;;;9.23;;
14143;SDS011;7152;48.348;10.980;2022-08-30T03:11:23;12.60;;;9.33;;
14143;SDS011;7152;48.348;10.980;2022-08-30T03:13:48;9.33;;;8.53;;
14143;SDS011;7152;48.348;10.980;2022-08-30T03:16:14;11.40;;;10.40;;
14143;SDS011;7152;48.348;10.980;2022-08-30T03:18:40;11.60;;;10.50;;
14143;SDS011;7152;48.348;10.980;2022-08-30T03:21:10;12.93;;;11.53;;
14143;SDS011;7152;48.348;10.980;2022-08-30T03:23:36;13.90;;;12.47;;
14143;SDS011;7152;48.348;10.980;2022-08-30T03:26:02;16.70;;;14.93;;
14143;SDS011;7152;48.348;10.980;2022-08-30T03:28:28;17.13;;;15.57;;
14143;SDS011;7152;48.348;10.980;2022-08-30T03:30:54;16.73;;;14.47;;
14143;SDS011;7152;48.348;10.980;2022-08-30T03:33:19;16.17;;;14.47;;
14143;SDS011;7152;48.348;10.980;2022-08-30T03:35:45;15.30;;;13.80;;
14143;SDS011;7152;48.348;10.980;2022-08-30T03:38:12;18.47;;;16.57;;
14143;SDS011;7152;48.348;10.980;2022-08-30T03:40:37;15.60;;;14.10;;
14143;SDS011;7152;48.348;10.980;2022-08-30T03:43:04;17.37;;;15.70;;
14143;SDS011;7152;48.348;10.980;2022-08-30T03:45:29;17.33;;;15.67;;
14143;SDS011;7152;48.348;10.980;2022-08-30T03:47:55;15.70;;;14.20;;
14143;SDS011;7152;48.348;10.980;2022-08-30T03:50:21;15.73;;;14.23;;
14143;SDS011;7152;48.348;10.980;2022-08-30T03:52:47;15.40;;;14.00;;
14143;SDS011;7152;48.348;10.980;2022-08-30T03:55:13;14.77;;;13.33;;
14143;SDS011;7152;48.348;10.980;2022-08-30T03:57:39;17.43;;;15.67;;
14143;SDS011;7152;48.348;10.980;2022-08-30T04:00:06;16.83;;;15.17;;
14143;SDS011;7152;48.348;10.980;2022-08-30T04:02:32;14.93;;;13.43;;
14143;SDS011;7152;48.348;10.980;2022-08-30T04:04:58;15.33;;;13.93;;
14143;SDS011;7152;48.348;10.980;2022-08-30T04:07:24;14.67;;;13.27;;
14143;SDS011;7152;48.348;10.980;2022-08-30T04:09:49;14.80;;;13.30;;
14143;SDS011;7152;48.348;10.980;2022-08-30T04:12:15;16.20;;;14.70;;
14143;SDS011;7152;48.348;10.980;2022-08-30T04:14:41;16.03;;;14.43;;
14143;SDS011;7152;48.348;10.980;2022-08-30T04:17:06;15.33;;;13.77;;
14143;SDS011;7152;48.348;10.980;2022-08-30T04:19:32;15.50;;;14.00;;
14143;SDS011;7152;48.348;10.980;2022-08-30T04:21:57;16.13;;;14.43;;
14143;SDS011;7152;48.348;10.980;2022-08-30T04:24:23;14.83;;;13.20;;
14143;SDS011;7152;48.348;10.980;2022-08-30T04:26:49;14.37;;;13.03;;
14143;SDS011;7152;48.348;10.980;2022-08-30T04:29:15;14.77;;;13.07;;
14143;SDS011;7152;48.348;10.980;2022-08-30T04:31:42;14.73;;;13.27;;
14143;SDS011;7152;48.348;10.980;2022-08-30T04:34:12;14.60;;;13.20;;
14143;SDS011;7152;48.348;10.980;2022-08-30T04:36:38;15.73;;;14.13;;
14143;SDS011;7152;48.348;10.980;2022-08-30T04:39:04;18.27;;;15.73;;
14143;SDS011;7152;48.348;10.980;2022-08-30T04:41:30;16.87;;;15.10;;
14143;SDS011;7152;48.348;10.980;2022-08-30T04:43:56;18.10;;;15.60;;
14143;SDS011;7152;48.348;10.980;2022-08-30T04:46:22;18.47;;;16.60;;
14143;SDS011;7152;48.348;10.980;2022-08-30T04:48:47;17.93;;;16.17;;
14143;SDS011;7152;48.348;10.980;2022-08-30T04:51:14;18.37;;;16.33;;
14143;SDS011;7152;48.348;10.980;2022-08-30T04:53:41;17.80;;;15.90;;
14143;SDS011;7152;48.348;10.980;2022-08-30T04:56:09;17.37;;;15.63;;
14143;SDS011;7152;48.348;10.980;2022-08-30T04:58:36;18.23;;;16.33;;
14143;SDS011;7152;48.348;10.980;2022-08-30T05:01:02;16.03;;;14.33;;
14143;SDS011;7152;48.348;10.980;2022-08-30T05:03:28;18.03;;;16.20;;
14143;SDS011;7152;48.348;10.980;2022-08-30T05:05:54;18.30;;;16.40;;
14143;SDS011;7152;48.348;10.980;2022-08-30T05:08:20;19.57;;;17.57;;
14143;SDS011;7152;48.348;10.980;2022-08-30T05:10:47;20.90;;;17.47;;
14143;SDS011;7152;48.348;10.980;2022-08-30T05:13:16;18.77;;;16.87;;
14143;SDS011;7152;48.348;10.980;2022-08-30T05:15:44;20.70;;;17.40;;
14143;SDS011;7152;48.348;10.980;2022-08-30T05:18:10;18.00;;;16.10;;
14143;SDS011;7152;48.348;10.980;2022-08-30T05:20:36;18.53;;;15.80;;
14143;SDS011;7152;48.348;10.980;2022-08-30T05:23:02;15.37;;;13.87;;
14143;SDS011;7152;48.348;10.980;2022-08-30T05:25:30;15.57;;;13.73;;
14143;SDS011;7152;48.348;10.980;2022-08-30T05:27:58;16.03;;;14.43;;
14143;SDS011;7152;48.348;10.980;2022-08-30T05:30:24;16.40;;;14.73;;
14143;SDS011;7152;48.348;10.980;2022-08-30T05:32:51;15.50;;;13.90;;
14143;SDS011;7152;48.348;10.980;2022-08-30T05:35:17;16.40;;;14.80;;
14143;SDS011;7152;48.348;10.980;2022-08-30T05:37:44;16.13;;;14.37;;
14143;SDS011;7152;48.348;10.980;2022-08-30T05:40:11;16.63;;;15.03;;
14143;SDS011;7152;48.348;10.980;2022-08-30T05:42:41;17.00;;;15.40;;
14143;SDS011;7152;48.348;10.980;2022-08-30T05:45:08;16.67;;;14.83;;
14143;SDS011;7152;48.348;10.980;2022-08-30T05:47:34;18.50;;;16.70;;
14143;SDS011;7152;48.348;10.980;2022-08-30T05:50:00;18.37;;;16.50;;
14143;SDS011;7152;48.348;10.980;2022-08-30T05:52:26;18.77;;;16.87;;
14143;SDS011;7152;48.348;10.980;2022-08-30T05:54:53;20.10;;;18.00;;
14143;SDS011;7152;48.348;10.980;2022-08-30T05:57:22;19.27;;;17.33;;
14143;SDS011;7152;48.348;10.980;2022-08-30T05:59:49;19.57;;;17.73;;
14143;SDS011;7152;48.348;10.980;2022-08-30T06:02:14;21.00;;;18.73;;
14143;SDS011;7152;48.348;10.980;2022-08-30T06:04:40;18.77;;;16.77;;
14143;SDS011;7152;48.348;10.980;2022-08-30T06:07:06;19.73;;;17.70;;
14143;SDS011;7152;48.348;10.980;2022-08-30T06:09:31;19.00;;;17.10;;
14143;SDS011;7152;48.348;10.980;2022-08-30T06:11:57;19.70;;;17.63;;
14143;SDS011;7152;48.348;10.980;2022-08-30T06:14:23;18.97;;;16.87;;
14143;SDS011;7152;48.348;10.980;2022-08-30T06:16:49;20.87;;;18.80;;
14143;SDS011;7152;48.348;10.980;2022-08-30T06:19:16;20.97;;;18.87;;
14143;SDS011;7152;48.348;10.980;2022-08-30T06:21:43;19.83;;;17.77;;
14143;SDS011;7152;48.348;10.980;2022-08-30T06:24:13;21.00;;;18.60;;
14143;SDS011;7152;48.348;10.980;2022-08-30T06:26:40;21.60;;;19.47;;
14143;SDS011;7152;48.348;10.980;2022-08-30T06:29:08;20.87;;;18.73;;
14143;SDS011;7152;48.348;10.980;2022-08-30T06:31:36;20.40;;;18.30;;
14143;SDS011;7152;48.348;10.980;2022-08-30T06:34:03;19.90;;;18.00;;
14143;SDS011;7152;48.348;10.980;2022-08-30T06:36:29;20.10;;;18.00;;
14143;SDS011;7152;48.348;10.980;2022-08-30T06:38:55;20.10;;;18.13;;
14143;SDS011;7152;48.348;10.980;2022-08-30T06:41:24;21.47;;;19.47;;
14143;SDS011;7152;48.348;10.980;2022-08-30T06:43:51;21.07;;;19.07;;
14143;SDS011;7152;48.348;10.980;2022-08-30T06:46:23;20.20;;;18.20;;
14143;SDS011;7152;48.348;10.980;2022-08-30T06:48:50;21.07;;;19.00;;
14143;SDS011;7152;48.348;10.980;2022-08-30T06:51:20;22.97;;;20.57;;
14143;SDS011;7152;48.348;10.980;2022-08-30T06:53:51;23.50;;;21.20;;
14143;SDS011;7152;48.348;10.980;2022-08-30T06:56:17;23.23;;;20.70;;
14143;SDS011;7152;48.348;10.980;2022-08-30T06:58:44;23.07;;;20.73;;
14143;SDS011;7152;48.348;10.980;2022-08-30T07:01:11;23.00;;;20.70;;
14143;SDS011;7152;48.348;10.980;2022-08-30T07:03:39;22.97;;;20.63;;
14143;SDS011;7152;48.348;10.980;2022-08-30T07:06:05;22.50;;;20.20;;
14143;SDS011;7152;48.348;10.980;2022-08-30T07:08:32;19.57;;;17.50;;
14143;SDS011;7152;48.348;10.980;2022-08-30T07:10:57;19.33;;;17.47;;
14143;SDS011;7152;48.348;10.980;2022-08-30T07:13:23;18.93;;;16.93;;
14143;SDS011;7152;48.348;10.980;2022-08-30T07:15:49;18.90;;;17.10;;
14143;SDS011;7152;48.348;10.980;2022-08-30T07:18:16;18.17;;;16.37;;
14143;SDS011;7152;48.348;10.980;2022-08-30T07:21:09;17.67;;;15.97;;
14143;SDS011;7152;48.348;10.980;2022-08-30T07:23:36;17.40;;;15.40;;
14143;SDS011;7152;48.348;10.980;2022-08-30T07:26:03;18.80;;;17.00;;
14143;SDS011;7152;48.348;10.980;2022-08-30T07:28:30;19.13;;;17.17;;
14143;SDS011;7152;48.348;10.980;2022-08-30T07:30:56;19.03;;;17.03;;
14143;SDS011;7152;48.348;10.980;2022-08-30T07:33:22;18.17;;;16.33;;
14143;SDS011;7152;48.348;10.980;2022-08-30T07:35:48;17.30;;;15.73;;
14143;SDS011;7152;48.348;10.980;2022-08-30T07:38:13;16.97;;;15.13;;
14143;SDS011;7152;48.348;10.980;2022-08-30T07:40:39;16.70;;;15.03;;
14143;SDS011;7152;48.348;10.980;2022-08-30T07:43:05;16.73;;;15.23;;
14143;SDS011;7152;48.348;10.980;2022-08-30T07:45:31;16.67;;;15.17;;
14143;SDS011;7152;48.348;10.980;2022-08-30T07:47:57;16.60;;;15.07;;
14143;SDS011;7152;48.348;10.980;2022-08-30T07:50:23;16.43;;;14.83;;
14143;SDS011;7152;48.348;10.980;2022-08-30T07:52:49;16.23;;;14.57;;
14143;SDS011;7152;48.348;10.980;2022-08-30T07:55:15;16.07;;;14.60;;
14143;SDS011;7152;48.348;10.980;2022-08-30T07:57:41;14.87;;;13.47;;
14143;SDS011;7152;48.348;10.980;2022-08-30T08:00:07;15.37;;;13.93;;
14143;SDS011;7152;48.348;10.980;2022-08-30T08:02:34;14.00;;;12.70;;
14143;SDS011;7152;48.348;10.980;2022-08-30T08:05:01;13.07;;;11.87;;
14143;SDS011;7152;48.348;10.980;2022-08-30T08:07:29;12.43;;;11.27;;
14143;SDS011;7152;48.348;10.980;2022-08-30T08:09:55;13.10;;;11.97;;
14143;SDS011;7152;48.348;10.980;2022-08-30T08:12:21;13.13;;;11.83;;
14143;SDS011;7152;48.348;10.980;2022-08-30T08:14:47;13.03;;;11.73;;
14143;SDS011;7152;48.348;10.980;2022-08-30T08:17:12;11.33;;;10.33;;
14143;SDS011;7152;48.348;10.980;2022-08-30T08:19:38;9.87;;;9.07;;
14143;SDS011;7152;48.348;10.980;2022-08-30T08:22:03;9.70;;;8.80;;
14143;SDS011;7152;48.348;10.980;2022-08-30T08:24:29;9.90;;;9.10;;
14143;SDS011;7152;48.348;10.980;2022-08-30T08:26:55;9.57;;;8.67;;
14143;SDS011;7152;48.348;10.980;2022-08-30T08:29:20;9.87;;;8.87;;
14143;SDS011;7152;48.348;10.980;2022-08-30T08:31:46;9.20;;;8.30;;
14143;SDS011;7152;48.348;10.980;2022-08-30T08:34:13;10.00;;;9.13;;
14143;SDS011;7152;48.348;10.980;2022-08-30T08:36:39;9.60;;;8.80;;
14143;SDS011;7152;48.348;10.980;2022-08-30T08:39:06;9.57;;;8.77;;
14143;SDS011;7152;48.348;10.980;2022-08-30T08:41:41;9.90;;;9.10;;
14143;SDS011;7152;48.348;10.980;2022-08-30T08:44:56;10.10;;;9.30;;
14143;SDS011;7152;48.348;10.980;2022-08-30T08:50:10;8.67;;;7.87;;
14143;SDS011;7152;48.348;10.980;2022-08-30T08:53:00;8.13;;;7.20;;
14143;SDS011;7152;48.348;10.980;2022-08-30T08:55:49;8.40;;;7.70;;
14143;SDS011;7152;48.348;10.980;2022-08-30T08:58:40;8.17;;;7.37;;
14143;SDS011;7152;48.348;10.980;2022-08-30T09:01:11;7.83;;;7.13;;
14143;SDS011;7152;48.348;10.980;2022-08-30T09:03:39;7.53;;;6.93;;
14143;SDS011;7152;48.348;10.980;2022-08-30T09:06:14;7.10;;;6.47;;
14143;SDS011;7152;48.348;10.980;2022-08-30T09:09:02;7.13;;;6.43;;
14143;SDS011;7152;48.348;10.980;2022-08-30T09:11:30;6.87;;;6.23;;
14143;SDS011;7152;48.348;10.980;2022-08-30T09:13:57;7.10;;;6.40;;
14143;SDS011;7152;48.348;10.980;2022-08-30T09:24:50;6.53;;;5.60;;
14143;SDS011;7152;48.348;10.980;2022-08-30T09:35:19;6.72;;;5.97;;
14143;SDS011;7152;48.348;10.980;2022-08-30T09:37:55;6.23;;;5.67;;
14143;SDS011;7152;48.348;10.980;2022-08-30T09:40:35;7.40;;;5.20;;
14143;SDS011;7152;48.348;10.980;2022-08-30T09:43:06;6.30;;;5.23;;
14143;SDS011;7152;48.348;10.980;2022-08-30T09:45:37;5.40;;;4.90;;
14143;SDS011;7152;48.348;10.980;2022-08-30T09:48:20;5.25;;;4.80;;
14143;SDS011;7152;48.348;10.980;2022-08-30T09:53:35;5.72;;;5.10;;
14143;SDS011;7152;48.348;10.980;2022-08-30T09:56:18;6.07;;;5.00;;
14143;SDS011;7152;48.348;10.980;2022-08-30T09:58:54;5.40;;;4.88;;
14143;SDS011;7152;48.348;10.980;2022-08-30T10:01:42;6.00;;;5.32;;
14143;SDS011;7152;48.348;10.980;2022-08-30T10:06:47;6.38;;;5.78;;
14143;SDS011;7152;48.348;10.980;2022-08-30T10:09:39;5.75;;;5.25;;
14143;SDS011;7152;48.348;10.980;2022-08-30T10:12:05;5.90;;;5.40;;
14143;SDS011;7152;48.348;10.980;2022-08-30T10:17:54;4.85;;;4.50;;
14143;SDS011;7152;48.348;10.980;2022-08-30T10:23:20;5.57;;;4.60;;
14143;SDS011;7152;48.348;10.980;2022-08-30T10:25:52;5.38;;;4.95;;
14143;SDS011;7152;48.348;10.980;2022-08-30T10:28:47;5.65;;;5.13;;
14143;SDS011;7152;48.348;10.980;2022-08-30T10:33:55;5.65;;;4.60;;
14143;SDS011;7152;48.348;10.980;2022-08-30T10:36:30;5.13;;;4.63;;
14143;SDS011;7152;48.348;10.980;2022-08-30T10:39:00;4.60;;;4.20;;
14143;SDS011;7152;48.348;10.980;2022-08-30T10:49:08;3.72;;;3.42;;
14143;SDS011;7152;48.348;10.980;2022-08-30T10:54:29;5.55;;;4.20;;
14143;SDS011;7152;48.348;10.980;2022-08-30T10:57:08;4.70;;;4.00;;
14143;SDS011;7152;48.348;10.980;2022-08-30T10:59:35;5.30;;;4.05;;
14143;SDS011;7152;48.348;10.980;2022-08-30T11:13:05;4.60;;;4.20;;
14143;SDS011;7152;48.348;10.980;2022-08-30T11:15:35;4.60;;;4.20;;
14143;SDS011;7152;48.348;10.980;2022-08-30T11:18:16;4.40;;;3.92;;
14143;SDS011;7152;48.348;10.980;2022-08-30T11:20:50;4.18;;;3.78;;
14143;SDS011;7152;48.348;10.980;2022-08-30T11:38:57;4.10;;;3.42;;
14143;SDS011;7152;48.348;10.980;2022-08-30T11:41:28;3.95;;;3.60;;
14143;SDS011;7152;48.348;10.980;2022-08-30T11:46:44;4.53;;;3.38;;
14143;SDS011;7152;48.348;10.980;2022-08-30T12:01:59;3.25;;;2.97;;
14143;SDS011;7152;48.348;10.980;2022-08-30T12:04:26;3.60;;;3.30;;
14143;SDS011;7152;48.348;10.980;2022-08-30T12:10:21;3.38;;;3.08;;
14143;SDS011;7152;48.348;10.980;2022-08-30T12:12:59;3.80;;;3.35;;
14143;SDS011;7152;48.348;10.980;2022-08-30T12:15:27;3.50;;;3.20;;
14143;SDS011;7152;48.348;10.980;2022-08-30T12:18:23;3.67;;;3.15;;
14143;SDS011;7152;48.348;10.980;2022-08-30T12:21:02;3.97;;;3.47;;
14143;SDS011;7152;48.348;10.980;2022-08-30T12:23:51;10.77;;;3.90;;
14143;SDS011;7152;48.348;10.980;2022-08-30T12:28:49;3.70;;;3.40;;
14143;SDS011;7152;48.348;10.980;2022-08-30T12:31:24;3.30;;;3.00;;
14143;SDS011;7152;48.348;10.980;2022-08-30T12:33:54;3.30;;;3.00;;
14143;SDS011;7152;48.348;10.980;2022-08-30T12:36:34;3.95;;;3.65;;
14143;SDS011;7152;48.348;10.980;2022-08-30T12:39:37;4.57;;;3.70;;
14143;SDS011;7152;48.348;10.980;2022-08-30T12:42:19;3.75;;;3.42;;
14143;SDS011;7152;48.348;10.980;2022-08-30T12:44:46;3.60;;;3.30;;
14143;SDS011;7152;48.348;10.980;2022-08-30T12:47:16;3.63;;;3.33;;
14143;SDS011;7152;48.348;10.980;2022-08-30T12:49:49;3.80;;;2.92;;
14143;SDS011;7152;48.348;10.980;2022-08-30T12:52:27;3.78;;;3.28;;
14143;SDS011;7152;48.348;10.980;2022-08-30T12:55:32;4.45;;;3.40;;
14143;SDS011;7152;48.348;10.980;2022-08-30T13:00:25;3.72;;;3.22;;
14143;SDS011;7152;48.348;10.980;2022-08-30T13:02:57;3.58;;;3.25;;
14143;SDS011;7152;48.348;10.980;2022-08-30T13:08:13;3.55;;;3.25;;
14143;SDS011;7152;48.348;10.980;2022-08-30T13:10:52;3.83;;;3.53;;
14143;SDS011;7152;48.348;10.980;2022-08-30T13:13:34;3.95;;;3.65;;
14143;SDS011;7152;48.348;10.980;2022-08-30T13:23:47;4.03;;;3.70;;
14143;SDS011;7152;48.348;10.980;2022-08-30T13:26:21;3.95;;;3.35;;
14143;SDS011;7152;48.348;10.980;2022-08-30T13:28:48;3.25;;;3.05;;
14143;SDS011;7152;48.348;10.980;2022-08-30T13:31:17;3.35;;;3.05;;
14143;SDS011;7152;48.348;10.980;2022-08-30T13:33:43;5.68;;;3.88;;
14143;SDS011;7152;48.348;10.980;2022-08-30T13:36:12;3.90;;;3.42;;
14143;SDS011;7152;48.348;10.980;2022-08-30T13:38:38;3.65;;;3.35;;
14143;SDS011;7152;48.348;10.980;2022-08-30T13:41:04;3.75;;;3.55;;
14143;SDS011;7152;48.348;10.980;2022-08-30T13:43:30;3.72;;;3.42;;
14143;SDS011;7152;48.348;10.980;2022-08-30T13:45:56;3.75;;;3.45;;
14143;SDS011;7152;48.348;10.980;2022-08-30T13:48:22;4.03;;;3.63;;
14143;SDS011;7152;48.348;10.980;2022-08-30T13:50:49;4.10;;;3.80;;
14143;SDS011;7152;48.348;10.980;2022-08-30T13:53:14;3.85;;;3.55;;
14143;SDS011;7152;48.348;10.980;2022-08-30T13:55:40;4.00;;;3.70;;
14143;SDS011;7152;48.348;10.980;2022-08-30T13:58:07;4.40;;;3.67;;
14143;SDS011;7152;48.348;10.980;2022-08-30T14:00:33;3.90;;;3.60;;
14143;SDS011;7152;48.348;10.980;2022-08-30T14:02:59;4.03;;;3.70;;
14143;SDS011;7152;48.348;10.980;2022-08-30T14:05:26;4.03;;;3.72;;
14143;SDS011;7152;48.348;10.980;2022-08-30T14:07:54;3.95;;;3.40;;
14143;SDS011;7152;48.348;10.980;2022-08-30T14:10:21;4.70;;;3.50;;
14143;SDS011;7152;48.348;10.980;2022-08-30T14:12:50;4.22;;;3.40;;
14143;SDS011;7152;48.348;10.980;2022-08-30T14:15:16;4.07;;;3.10;;
14143;SDS011;7152;48.348;10.980;2022-08-30T14:17:42;3.53;;;3.22;;
14143;SDS011;7152;48.348;10.980;2022-08-30T14:20:07;3.67;;;3.13;;
14143;SDS011;7152;48.348;10.980;2022-08-30T14:22:33;3.38;;;3.08;;
14143;SDS011;7152;48.348;10.980;2022-08-30T14:24:59;3.30;;;3.10;;
14143;SDS011;7152;48.348;10.980;2022-08-30T14:27:27;3.40;;;3.10;;
14143;SDS011;7152;48.348;10.980;2022-08-30T14:29:54;4.65;;;3.15;;
14143;SDS011;7152;48.348;10.980;2022-08-30T14:32:20;4.28;;;3.30;;
14143;SDS011;7152;48.348;10.980;2022-08-30T14:34:46;3.38;;;2.97;;
14143;SDS011;7152;48.348;10.980;2022-08-30T14:37:11;3.22;;;2.92;;
14143;SDS011;7152;48.348;10.980;2022-08-30T14:39:37;4.40;;;3.30;;
14143;SDS011;7152;48.348;10.980;2022-08-30T14:42:03;3.47;;;3.10;;
14143;SDS011;7152;48.348;10.980;2022-08-30T14:44:29;4.30;;;3.33;;
14143;SDS011;7152;48.348;10.980;2022-08-30T14:46:56;3.95;;;3.65;;
14143;SDS011;7152;48.348;10.980;2022-08-30T14:49:22;3.63;;;3.33;;
14143;SDS011;7152;48.348;10.980;2022-08-30T14:51:48;3.50;;;3.20;;
14143;SDS011;7152;48.348;10.980;2022-08-30T14:54:15;3.40;;;3.10;;
14143;SDS011;7152;48.348;10.980;2022-08-30T14:56:44;3.50;;;3.28;;
14143;SDS011;7152;48.348;10.980;2022-08-30T14:59:10;3.83;;;3.40;;
14143;SDS011;7152;48.348;10.980;2022-08-30T15:01:37;3.63;;;3.28;;
14143;SDS011;7152;48.348;10.980;2022-08-30T15:04:04;3.65;;;3.30;;
14143;SDS011;7152;48.348;10.980;2022-08-30T15:06:31;3.05;;;2.85;;
14143;SDS011;7152;48.348;10.980;2022-08-30T15:08:57;3.25;;;2.97;;
14143;SDS011;7152;48.348;10.980;2022-08-30T15:11:23;3.17;;;2.97;;
14143;SDS011;7152;48.348;10.980;2022-08-30T15:13:50;3.40;;;3.10;;
14143;SDS011;7152;48.348;10.980;2022-08-30T15:16:18;3.33;;;2.80;;
14143;SDS011;7152;48.348;10.980;2022-08-30T15:18:46;3.45;;;3.25;;
14143;SDS011;7152;48.348;10.980;2022-08-30T15:21:12;3.28;;;3.08;;
14143;SDS011;7152;48.348;10.980;2022-08-30T15:23:38;3.10;;;2.90;;
14143;SDS011;7152;48.348;10.980;2022-08-30T15:26:04;3.17;;;2.88;;
14143;SDS011;7152;48.348;10.980;2022-08-30T15:28:30;3.40;;;3.10;;
14143;SDS011;7152;48.348;10.980;2022-08-30T15:30:56;3.47;;;3.20;;
14143;SDS011;7152;48.348;10.980;2022-08-30T15:33:22;3.70;;;3.35;;
14143;SDS011;7152;48.348;10.980;2022-08-30T15:35:48;2.90;;;2.70;;
14143;SDS011;7152;48.348;10.980;2022-08-30T15:38:16;3.45;;;3.15;;
14143;SDS011;7152;48.348;10.980;2022-08-30T15:40:43;3.38;;;2.80;;
14143;SDS011;7152;48.348;10.980;2022-08-30T15:43:10;3.72;;;3.38;;
14143;SDS011;7152;48.348;10.980;2022-08-30T15:45:35;5.25;;;3.47;;
14143;SDS011;7152;48.348;10.980;2022-08-30T15:48:01;3.75;;;3.45;;
14143;SDS011;7152;48.348;10.980;2022-08-30T15:50:27;4.20;;;3.88;;
14143;SDS011;7152;48.348;10.980;2022-08-30T15:52:52;4.22;;;3.88;;
14143;SDS011;7152;48.348;10.980;2022-08-30T15:55:18;3.70;;;3.40;;
14143;SDS011;7152;48.348;10.980;2022-08-30T15:57:44;3.75;;;3.47;;
14143;SDS011;7152;48.348;10.980;2022-08-30T16:00:10;3.90;;;3.50;;
14143;SDS011;7152;48.348;10.980;2022-08-30T16:02:36;4.28;;;3.63;;
14143;SDS011;7152;48.348;10.980;2022-08-30T16:05:02;3.85;;;3.55;;
14143;SDS011;7152;48.348;10.980;2022-08-30T16:07:28;4.18;;;3.88;;
14143;SDS011;7152;48.348;10.980;2022-08-30T16:09:54;3.78;;;3.47;;
14143;SDS011;7152;48.348;10.980;2022-08-30T16:12:19;4.32;;;3.53;;
14143;SDS011;7152;48.348;10.980;2022-08-30T16:14:45;5.05;;;4.00;;
14143;SDS011;7152;48.348;10.980;2022-08-30T16:17:13;4.45;;;3.97;;
14143;SDS011;7152;48.348;10.980;2022-08-30T16:19:39;4.18;;;3.70;;
14143;SDS011;7152;48.348;10.980;2022-08-30T16:22:05;4.45;;;4.07;;
14143;SDS011;7152;48.348;10.980;2022-08-30T16:24:32;4.70;;;3.60;;
14143;SDS011;7152;48.348;10.980;2022-08-30T16:26:58;4.10;;;3.80;;